createdAt,value
2023-01-30T00:01:18.688Z,1.80
2023-01-30T00:03:45.939Z,1.73
2023-01-30T00:06:12.926Z,1.77
2023-01-30T00:08:40.080Z,1.50
2023-01-30T00:11:08.190Z,2.17
2023-01-30T00:13:35.099Z,1.70
2023-01-30T00:16:02.659Z,1.65
2023-01-30T00:18:29.669Z,1.55
2023-01-30T00:21:00.679Z,1.15
2023-01-30T00:23:27.976Z,1.15
2023-01-30T00:25:55.053Z,1.13
2023-01-30T00:28:22.115Z,1.40
2023-01-30T00:30:50.628Z,1.27
2023-01-30T00:33:17.653Z,0.70
2023-01-30T00:35:46.062Z,1.58
2023-01-30T00:38:13.977Z,1.35
2023-01-30T00:40:40.944Z,1.15
2023-01-30T00:43:26.720Z,0.93
2023-01-30T00:46:12.445Z,0.90
2023-01-30T00:48:39.354Z,1.08
2023-01-30T00:51:06.404Z,1.15
2023-01-30T00:53:33.371Z,1.17
2023-01-30T00:56:00.370Z,0.73
2023-01-30T00:58:27.304Z,0.77
2023-01-30T01:00:54.506Z,0.88
2023-01-30T01:03:21.611Z,0.82
2023-01-30T01:05:48.657Z,1.02
2023-01-30T01:08:15.900Z,0.88
2023-01-30T01:10:42.827Z,0.80
2023-01-30T01:13:10.691Z,0.75
2023-01-30T01:15:37.766Z,0.95
2023-01-30T01:18:04.747Z,0.98
2023-01-30T01:20:31.621Z,0.75
2023-01-30T01:22:58.489Z,0.95
2023-01-30T01:25:25.525Z,1.00
2023-01-30T01:27:52.480Z,0.93
2023-01-30T01:30:19.705Z,1.00
2023-01-30T01:32:47.390Z,0.80
2023-01-30T01:35:14.283Z,0.77
2023-01-30T01:37:41.195Z,1.05
2023-01-30T01:40:27.417Z,0.90
2023-01-30T01:42:54.266Z,0.98
2023-01-30T01:45:24.700Z,0.90
2023-01-30T01:47:59.639Z,0.60
2023-01-30T01:50:29.856Z,0.98
2023-01-30T01:52:56.702Z,1.13
2023-01-30T01:55:23.574Z,0.65
2023-01-30T01:57:59.698Z,0.88
2023-01-30T02:00:26.577Z,0.88
2023-01-30T02:02:59.097Z,0.70
2023-01-30T02:05:34.584Z,1.00
2023-01-30T02:08:04.549Z,1.20
2023-01-30T02:10:53.013Z,0.80
2023-01-30T02:13:20.090Z,0.82
2023-01-30T02:15:47.000Z,0.73
2023-01-30T02:18:14.240Z,0.70
2023-01-30T02:21:02.522Z,0.75
2023-01-30T02:23:48.242Z,0.60
2023-01-30T02:26:43.352Z,1.00
2023-01-30T02:29:34.659Z,1.10
2023-01-30T02:32:04.212Z,0.63
2023-01-30T02:35:03.571Z,1.23
2023-01-30T02:37:42.531Z,1.15
2023-01-30T02:40:35.347Z,0.47
2023-01-30T02:43:27.244Z,0.77
2023-01-30T02:46:11.351Z,0.90
2023-01-30T02:48:46.517Z,0.63
2023-01-30T02:51:23.279Z,0.68
2023-01-30T02:53:50.330Z,0.80
2023-01-30T02:56:17.185Z,1.00
2023-01-30T02:58:49.503Z,0.95
2023-01-30T03:01:22.433Z,1.10
2023-01-30T03:04:27.903Z,0.60
2023-01-30T03:07:16.278Z,0.60
2023-01-30T03:09:56.556Z,1.00
2023-01-30T03:12:46.475Z,0.73
2023-01-30T03:16:00.253Z,0.70
2023-01-30T03:18:27.326Z,0.82
2023-01-30T03:20:54.355Z,1.60
2023-01-30T03:23:21.238Z,0.88
2023-01-30T03:25:48.173Z,0.57
2023-01-30T03:28:17.132Z,0.63
2023-01-30T03:30:44.039Z,0.88
2023-01-30T03:33:11.140Z,0.63
2023-01-30T03:35:38.067Z,1.00
2023-01-30T03:38:04.915Z,0.80
2023-01-30T03:40:31.805Z,0.73
2023-01-30T03:42:58.909Z,1.08
2023-01-30T03:45:25.880Z,0.77
2023-01-30T03:47:52.748Z,0.70
2023-01-30T03:50:19.691Z,0.70
2023-01-30T03:52:46.604Z,1.15
2023-01-30T03:55:13.701Z,0.80
2023-01-30T03:57:40.582Z,0.77
2023-01-30T04:00:08.254Z,0.90
2023-01-30T04:02:35.147Z,0.70
2023-01-30T04:05:02.077Z,0.98
2023-01-30T04:07:29.811Z,1.00
2023-01-30T04:09:56.727Z,0.73
2023-01-30T04:12:23.654Z,0.75
2023-01-30T04:14:50.541Z,0.82
2023-01-30T04:17:17.501Z,0.63
2023-01-30T04:19:44.507Z,0.70
2023-01-30T04:22:11.353Z,0.95
2023-01-30T04:24:38.226Z,0.60
2023-01-30T04:27:05.096Z,0.50
2023-01-30T04:29:32.035Z,0.88
2023-01-30T04:31:58.907Z,1.05
2023-01-30T04:34:25.896Z,1.27
2023-01-30T04:36:52.897Z,0.90
2023-01-30T04:39:21.218Z,0.98
2023-01-30T04:41:49.002Z,1.08
2023-01-30T04:44:15.903Z,1.00
2023-01-30T04:46:42.791Z,1.00
2023-01-30T04:49:12.900Z,1.15
2023-01-30T04:51:39.739Z,0.60
2023-01-30T04:54:06.866Z,0.88
2023-01-30T04:56:33.809Z,1.13
2023-01-30T04:59:00.690Z,0.60
2023-01-30T05:01:32.659Z,0.82
2023-01-30T05:03:59.716Z,1.20
2023-01-30T05:06:26.698Z,0.95
2023-01-30T05:08:54.627Z,1.25
2023-01-30T05:11:21.718Z,1.02
2023-01-30T05:13:51.579Z,0.93
2023-01-30T05:16:18.991Z,1.10
2023-01-30T05:18:46.133Z,0.98
2023-01-30T05:21:18.501Z,1.10
2023-01-30T05:23:45.461Z,1.33
2023-01-30T05:26:13.339Z,1.13
2023-01-30T05:28:40.378Z,0.98
2023-01-30T05:31:09.632Z,1.05
2023-01-30T05:33:37.589Z,1.17
2023-01-30T05:36:05.118Z,1.20
2023-01-30T05:38:31.937Z,1.13
2023-01-30T05:41:06.405Z,0.90
2023-01-30T05:43:33.632Z,1.10
2023-01-30T05:46:01.735Z,1.10
2023-01-30T05:48:28.922Z,1.15
2023-01-30T05:50:57.598Z,1.27
2023-01-30T05:53:25.457Z,1.23
2023-01-30T05:56:02.585Z,0.82
2023-01-30T05:58:29.764Z,1.13
2023-01-30T06:01:01.490Z,1.55
2023-01-30T06:03:28.390Z,0.68
2023-01-30T06:05:55.284Z,0.93
2023-01-30T06:08:22.300Z,0.85
2023-01-30T06:10:49.149Z,0.73
2023-01-30T06:13:16.104Z,1.40
2023-01-30T06:15:42.953Z,0.70
2023-01-30T06:18:09.924Z,0.63
2023-01-30T06:20:36.922Z,0.82
2023-01-30T06:23:03.794Z,1.30
2023-01-30T06:25:30.611Z,0.90
2023-01-30T06:27:57.494Z,1.33
2023-01-30T06:30:24.440Z,1.13
2023-01-30T06:32:51.718Z,1.80
2023-01-30T06:35:19.140Z,1.00
2023-01-30T06:37:46.182Z,1.10
2023-01-30T06:40:13.411Z,1.00
2023-01-30T06:42:47.319Z,1.73
2023-01-30T06:47:59.778Z,1.00
2023-01-30T06:50:27.750Z,1.73
2023-01-30T06:52:55.465Z,1.25
2023-01-30T06:55:23.974Z,1.65
2023-01-30T06:57:50.911Z,1.13
2023-01-30T07:00:19.561Z,1.60
2023-01-30T07:02:47.082Z,1.20
2023-01-30T07:05:13.992Z,1.13
2023-01-30T07:07:40.963Z,1.33
2023-01-30T07:10:09.354Z,1.45
2023-01-30T07:12:36.992Z,1.85
2023-01-30T07:15:05.463Z,1.10
2023-01-30T07:17:32.531Z,0.88
2023-01-30T07:19:59.543Z,1.15
2023-01-30T07:22:26.589Z,1.25
2023-01-30T07:24:53.556Z,0.60
2023-01-30T07:27:20.404Z,0.80
2023-01-30T07:29:47.453Z,0.85
2023-01-30T07:32:16.155Z,1.10
2023-01-30T07:34:43.132Z,1.17
2023-01-30T07:37:10.108Z,0.77
2023-01-30T07:39:36.980Z,1.42
2023-01-30T07:42:04.057Z,1.00
2023-01-30T07:44:31.005Z,1.38
2023-01-30T07:46:57.874Z,0.60
2023-01-30T07:49:24.890Z,0.60
2023-01-30T07:51:52.125Z,0.60
2023-01-30T07:54:19.240Z,1.73
2023-01-30T07:56:46.075Z,1.10
2023-01-30T07:59:12.964Z,0.68
2023-01-30T08:01:39.823Z,0.52
2023-01-30T08:04:06.912Z,0.73
2023-01-30T08:06:38.987Z,1.00
2023-01-30T08:09:06.456Z,0.77
2023-01-30T08:11:33.542Z,0.90
2023-01-30T08:14:00.593Z,0.65
2023-01-30T08:16:27.699Z,0.73
2023-01-30T08:18:54.608Z,1.02
2023-01-30T08:21:21.448Z,0.90
2023-01-30T08:23:48.622Z,0.65
2023-01-30T08:26:15.585Z,0.60
2023-01-30T08:28:42.522Z,1.38
2023-01-30T08:31:10.850Z,0.57
2023-01-30T08:33:37.917Z,0.75
2023-01-30T08:36:05.407Z,0.80
2023-01-30T08:38:32.333Z,0.47
2023-01-30T08:41:01.091Z,0.98
2023-01-30T08:43:28.236Z,1.23
2023-01-30T08:45:55.484Z,0.82
2023-01-30T08:48:22.558Z,0.90
2023-01-30T08:50:55.116Z,0.77
2023-01-30T08:53:22.153Z,1.10
2023-01-30T08:55:55.073Z,0.63
2023-01-30T08:58:22.100Z,1.10
2023-01-30T09:00:50.448Z,0.45
2023-01-30T09:03:18.104Z,1.30
2023-01-30T09:05:44.995Z,0.50
2023-01-30T09:08:12.384Z,0.90
2023-01-30T09:10:39.247Z,0.82
2023-01-30T09:13:07.829Z,0.88
2023-01-30T09:15:34.817Z,0.85
2023-01-30T09:18:01.648Z,0.77
2023-01-30T09:20:28.509Z,0.80
2023-01-30T09:22:55.512Z,0.68
2023-01-30T09:25:22.329Z,1.38
2023-01-30T09:27:49.928Z,1.20
2023-01-30T09:30:17.884Z,0.60
2023-01-30T09:32:45.023Z,1.10
2023-01-30T09:35:12.203Z,0.80
2023-01-30T09:37:39.134Z,1.00
2023-01-30T09:40:07.035Z,0.60
2023-01-30T09:42:35.538Z,0.90
2023-01-30T09:45:45.672Z,0.77
2023-01-30T09:48:18.118Z,0.60
2023-01-30T09:51:06.669Z,0.73
2023-01-30T09:54:01.535Z,0.95
2023-01-30T09:58:59.475Z,0.70
2023-01-30T10:01:40.790Z,0.60
2023-01-30T10:04:30.270Z,1.20
2023-01-30T10:07:19.460Z,1.13
2023-01-30T10:09:56.377Z,0.63
2023-01-30T10:12:35.537Z,0.93
2023-01-30T10:15:06.395Z,0.80
2023-01-30T10:17:37.401Z,1.23
2023-01-30T10:20:07.143Z,0.80
2023-01-30T10:22:41.367Z,1.23
2023-01-30T10:25:32.316Z,1.20
2023-01-30T10:28:06.901Z,1.27
2023-01-30T10:30:34.336Z,1.30
2023-01-30T10:33:23.378Z,1.08
2023-01-30T10:36:10.418Z,1.08
2023-01-30T10:38:51.676Z,1.40
2023-01-30T10:41:37.947Z,1.02
2023-01-30T10:44:14.292Z,1.27
2023-01-30T10:47:10.505Z,0.75
2023-01-30T10:49:49.702Z,1.10
2023-01-30T10:52:33.617Z,0.90
2023-01-30T10:55:01.971Z,1.52
2023-01-30T10:57:50.704Z,0.88
2023-01-30T11:00:23.761Z,0.80
2023-01-30T11:02:59.849Z,0.65
2023-01-30T11:05:39.766Z,0.85
2023-01-30T11:08:15.802Z,1.08
2023-01-30T11:10:42.787Z,0.82
2023-01-30T11:13:30.515Z,1.52
2023-01-30T11:15:59.894Z,1.20
2023-01-30T11:19:17.181Z,1.65
2023-01-30T11:21:22.270Z,1.02
2023-01-30T11:23:51.517Z,1.33
2023-01-30T11:26:47.088Z,0.70
2023-01-30T11:29:40.842Z,0.52
2023-01-30T11:32:19.184Z,0.98
2023-01-30T11:34:46.195Z,1.00
2023-01-30T11:37:23.895Z,2.05
2023-01-30T11:39:54.133Z,1.27
2023-01-30T11:42:23.675Z,1.05
2023-01-30T11:45:06.483Z,1.25
2023-01-30T11:47:59.686Z,0.70
2023-01-30T11:50:49.639Z,0.73
2023-01-30T11:53:28.980Z,1.25
2023-01-30T11:56:05.439Z,0.77
2023-01-30T11:58:35.534Z,0.73
2023-01-30T12:01:03.167Z,0.98
2023-01-30T12:03:30.579Z,1.20
2023-01-30T12:05:58.108Z,0.80
2023-01-30T12:08:41.723Z,1.27
2023-01-30T12:13:57.928Z,0.60
2023-01-30T12:16:37.648Z,1.42
2023-01-30T12:19:26.535Z,1.08
2023-01-30T12:22:02.371Z,0.63
2023-01-30T12:24:35.700Z,1.35
2023-01-30T12:27:06.601Z,1.05
2023-01-30T12:29:34.627Z,0.80
2023-01-30T12:32:11.701Z,1.67
2023-01-30T12:34:38.916Z,1.10
2023-01-30T12:37:23.915Z,1.08
2023-01-30T12:40:09.370Z,1.00
2023-01-30T12:42:36.258Z,1.00
2023-01-30T12:45:22.454Z,0.80
2023-01-30T12:48:08.185Z,1.77
2023-01-30T12:50:54.542Z,0.75
2023-01-30T12:53:31.352Z,1.08
2023-01-30T12:56:18.284Z,1.42
2023-01-30T12:59:03.245Z,0.80
2023-01-30T13:02:07.987Z,1.08
2023-01-30T13:05:12.713Z,1.02
2023-01-30T13:08:00.554Z,0.57
2023-01-30T13:10:47.927Z,0.88
2023-01-30T13:13:20.026Z,0.90
2023-01-30T13:16:05.924Z,0.80
2023-01-30T13:18:38.423Z,1.13
2023-01-30T13:21:18.878Z,1.00
2023-01-30T13:23:49.985Z,1.15
2023-01-30T13:26:19.656Z,1.10
2023-01-30T13:28:51.372Z,1.02
2023-01-30T13:31:23.914Z,1.00
2023-01-30T13:33:52.725Z,1.45
2023-01-30T13:36:22.230Z,1.00
2023-01-30T13:41:47.585Z,1.10
2023-01-30T13:44:27.931Z,1.10
2023-01-30T13:46:55.149Z,0.88
2023-01-30T13:49:38.815Z,1.15
2023-01-30T13:52:31.909Z,0.98
2023-01-30T13:55:17.550Z,1.10
2023-01-30T13:58:07.620Z,1.00
2023-01-30T14:00:35.719Z,1.02
2023-01-30T14:03:08.826Z,1.10
2023-01-30T14:05:54.509Z,1.13
2023-01-30T14:08:27.509Z,0.75
2023-01-30T14:10:57.591Z,0.93
2023-01-30T14:13:25.770Z,1.02
2023-01-30T14:16:04.578Z,1.85
2023-01-30T14:18:34.061Z,1.13
2023-01-30T14:21:13.313Z,1.10
2023-01-30T14:23:40.257Z,1.20
2023-01-30T14:26:07.198Z,0.77
2023-01-30T14:28:44.287Z,0.95
2023-01-30T14:31:11.435Z,1.00
2023-01-30T14:33:51.515Z,1.17
2023-01-30T14:36:21.551Z,1.45
2023-01-30T14:38:56.812Z,0.77
2023-01-30T14:41:27.702Z,1.30
2023-01-30T14:43:54.859Z,0.70
2023-01-30T14:46:21.953Z,1.20
2023-01-30T14:48:54.806Z,1.17
2023-01-30T14:51:32.203Z,1.40
2023-01-30T14:54:01.867Z,1.10
2023-01-30T14:56:42.812Z,1.05
2023-01-30T14:59:25.166Z,0.80
2023-01-30T15:02:14.516Z,1.08
2023-01-30T15:05:00.206Z,1.70
2023-01-30T15:07:39.252Z,0.95
2023-01-30T15:10:38.244Z,1.45
2023-01-30T15:13:29.230Z,1.10
2023-01-30T15:16:24.165Z,0.80
2023-01-30T15:19:03.719Z,1.15
2023-01-30T15:21:41.226Z,1.40
2023-01-30T15:24:29.423Z,0.75
2023-01-30T15:27:02.251Z,1.17
2023-01-30T15:29:41.150Z,1.00
2023-01-30T15:32:21.743Z,0.93
2023-01-30T15:35:03.080Z,0.75
2023-01-30T15:37:51.149Z,0.95
2023-01-30T15:40:19.430Z,1.15
2023-01-30T15:43:02.134Z,0.77
2023-01-30T15:45:29.484Z,0.90
2023-01-30T15:48:27.311Z,1.20
2023-01-30T15:50:55.546Z,1.27
2023-01-30T15:53:34.525Z,1.98
2023-01-30T15:56:05.140Z,0.95
2023-01-30T15:58:32.906Z,1.17
2023-01-30T16:01:00.362Z,1.50
2023-01-30T16:03:40.904Z,1.48
2023-01-30T16:06:09.551Z,1.00
2023-01-30T16:08:36.725Z,0.90
2023-01-30T16:11:03.921Z,1.48
2023-01-30T16:13:33.402Z,0.93
2023-01-30T16:16:04.306Z,0.90
2023-01-30T16:18:38.379Z,1.42
2023-01-30T16:21:16.163Z,1.23
2023-01-30T16:24:29.345Z,1.00
2023-01-30T16:27:01.426Z,1.13
2023-01-30T16:29:29.222Z,1.05
2023-01-30T16:31:56.632Z,1.90
2023-01-30T16:34:36.325Z,0.95
2023-01-30T16:37:27.326Z,1.38
2023-01-30T16:40:14.156Z,1.05
2023-01-30T16:42:41.327Z,1.23
2023-01-30T16:45:11.507Z,1.88
2023-01-30T16:47:38.773Z,1.27
2023-01-30T16:50:05.904Z,3.10
2023-01-30T16:52:38.209Z,1.20
2023-01-30T16:55:06.875Z,1.25
2023-01-30T16:57:42.512Z,0.82
2023-01-30T17:00:15.917Z,1.27
2023-01-30T17:02:43.181Z,1.58
2023-01-30T17:05:19.339Z,1.15
2023-01-30T17:07:46.547Z,2.47
2023-01-30T17:10:40.250Z,1.23
2023-01-30T17:13:44.069Z,1.73
2023-01-30T17:16:20.131Z,1.08
2023-01-30T17:18:47.829Z,1.05
2023-01-30T17:21:15.145Z,1.17
2023-01-30T17:23:53.523Z,1.08
2023-01-30T17:26:20.525Z,1.30
2023-01-30T17:28:47.468Z,1.67
2023-01-30T17:31:17.233Z,2.35
2023-01-30T17:33:44.180Z,1.48
2023-01-30T17:36:19.263Z,1.50
2023-01-30T17:38:46.932Z,1.25
2023-01-30T17:41:33.637Z,1.67
2023-01-30T17:44:00.549Z,0.82
2023-01-30T17:46:32.717Z,1.55
2023-01-30T17:48:59.660Z,1.20
2023-01-30T17:51:26.686Z,1.30
2023-01-30T17:53:53.601Z,1.58
2023-01-30T17:56:38.851Z,1.73
2023-01-30T17:59:08.574Z,1.42
2023-01-30T18:01:35.645Z,2.05
2023-01-30T18:04:02.644Z,1.95
2023-01-30T18:06:32.364Z,1.23
2023-01-30T18:09:01.356Z,1.77
2023-01-30T18:11:28.364Z,1.15
2023-01-30T18:13:55.628Z,1.95
2023-01-30T18:16:31.266Z,1.48
2023-01-30T18:18:59.340Z,1.90
2023-01-30T18:21:26.417Z,2.00
2023-01-30T18:23:53.275Z,1.92
2023-01-30T18:26:20.314Z,1.67
2023-01-30T18:28:47.541Z,2.47
2023-01-30T18:31:14.866Z,2.38
2023-01-30T18:33:44.687Z,2.08
2023-01-30T18:36:16.371Z,2.58
2023-01-30T18:38:46.750Z,1.83
2023-01-30T18:41:14.712Z,1.75
2023-01-30T18:43:41.697Z,2.25
2023-01-30T18:46:14.516Z,1.70
2023-01-30T18:48:41.948Z,1.63
2023-01-30T18:51:10.081Z,1.38
2023-01-30T18:53:37.046Z,1.40
2023-01-30T18:56:04.922Z,1.52
2023-01-30T18:58:32.510Z,1.77
2023-01-30T19:00:59.695Z,2.28
2023-01-30T19:03:26.775Z,2.53
2023-01-30T19:05:53.807Z,1.83
2023-01-30T19:08:22.152Z,0.90
2023-01-30T19:10:49.148Z,1.65
2023-01-30T19:13:33.839Z,1.13
2023-01-30T19:16:01.447Z,1.05
2023-01-30T19:18:31.316Z,1.48
2023-01-30T19:21:01.851Z,1.42
2023-01-30T19:23:33.974Z,2.92
2023-01-30T19:26:01.545Z,3.03
2023-01-30T19:28:31.766Z,2.78
2023-01-30T19:30:58.771Z,3.08
2023-01-30T19:33:25.948Z,3.72
2023-01-30T19:35:52.944Z,3.28
2023-01-30T19:38:21.133Z,4.15
2023-01-30T19:40:48.247Z,3.08
2023-01-30T19:43:15.305Z,2.33
2023-01-30T19:45:43.893Z,2.38
2023-01-30T19:48:11.040Z,2.55
2023-01-30T19:50:38.188Z,2.58
2023-01-30T19:53:05.131Z,2.53
2023-01-30T19:55:35.402Z,2.88
2023-01-30T19:58:03.594Z,3.53
2023-01-30T20:00:30.535Z,2.60
2023-01-30T20:02:57.735Z,3.10
2023-01-30T20:05:24.801Z,2.72
2023-01-30T20:07:51.895Z,4.10
2023-01-30T20:10:19.139Z,2.20
2023-01-30T20:12:46.674Z,2.65
2023-01-30T20:15:13.639Z,2.78
2023-01-30T20:17:40.685Z,3.55
2023-01-30T20:20:31.649Z,2.97
2023-01-30T20:23:00.114Z,2.92
2023-01-30T20:25:27.056Z,2.80
2023-01-30T20:27:54.019Z,2.90
2023-01-30T20:30:21.568Z,2.70
2023-01-30T20:32:48.733Z,2.17
2023-01-30T20:35:15.948Z,3.17
2023-01-30T20:37:42.910Z,2.38
2023-01-30T20:40:10.919Z,3.13
2023-01-30T20:42:38.568Z,2.53
2023-01-30T20:45:06.246Z,2.92
2023-01-30T20:47:34.929Z,2.50
2023-01-30T20:50:01.903Z,2.50
2023-01-30T20:52:29.606Z,2.60
2023-01-30T20:54:56.569Z,2.80
2023-01-30T20:57:23.965Z,2.20
2023-01-30T20:59:50.888Z,2.80
2023-01-30T21:02:18.095Z,2.65
2023-01-30T21:04:44.991Z,2.65
2023-01-30T21:07:12.108Z,2.50
2023-01-30T21:09:39.472Z,3.45
2023-01-30T21:12:06.900Z,2.63
2023-01-30T21:14:33.903Z,2.53
2023-01-30T21:17:01.480Z,2.25
2023-01-30T21:19:28.492Z,3.13
2023-01-30T21:21:56.094Z,3.65
2023-01-30T21:24:26.316Z,3.78
2023-01-30T21:26:53.551Z,4.28
2023-01-30T21:29:22.259Z,3.35
2023-01-30T21:31:49.386Z,3.78
2023-01-30T21:34:16.775Z,2.78
2023-01-30T21:36:43.638Z,3.05
2023-01-30T21:39:32.097Z,3.63
2023-01-30T21:42:17.381Z,3.78
2023-01-30T21:44:44.337Z,3.50
2023-01-30T21:47:11.362Z,3.97
2023-01-30T21:49:38.909Z,4.65
2023-01-30T21:52:05.956Z,3.40
2023-01-30T21:54:32.934Z,3.17
2023-01-30T21:56:59.986Z,3.90
2023-01-30T21:59:26.871Z,3.30
2023-01-30T22:01:53.777Z,3.35
2023-01-30T22:04:20.717Z,3.42
2023-01-30T22:06:47.597Z,3.70
2023-01-30T22:09:15.352Z,3.38
2023-01-30T22:11:42.440Z,3.30
2023-01-30T22:14:09.845Z,3.53
2023-01-30T22:16:37.054Z,3.25
2023-01-30T22:19:05.001Z,3.30
2023-01-30T22:21:34.747Z,3.17
2023-01-30T22:24:02.119Z,4.47
2023-01-30T22:26:29.337Z,3.60
2023-01-30T22:28:57.233Z,3.90
2023-01-30T22:31:24.558Z,3.58
2023-01-30T22:33:53.756Z,3.08
2023-01-30T22:36:23.063Z,3.20
2023-01-30T22:38:50.597Z,3.50
2023-01-30T22:41:19.354Z,3.65
2023-01-30T22:43:54.718Z,2.60
2023-01-30T22:46:25.695Z,3.13
2023-01-30T22:48:52.804Z,2.80
2023-01-30T22:51:28.845Z,3.92
2023-01-30T22:54:06.770Z,2.95
2023-01-30T22:56:40.686Z,2.95
2023-01-30T23:01:39.329Z,2.53
2023-01-30T23:04:10.378Z,3.25
2023-01-30T23:06:38.052Z,3.30
2023-01-30T23:09:05.818Z,2.40
2023-01-30T23:11:41.053Z,2.53
2023-01-30T23:14:13.024Z,2.33
2023-01-30T23:16:41.324Z,2.63
2023-01-30T23:19:11.217Z,2.67
2023-01-30T23:21:45.694Z,2.17
2023-01-30T23:24:18.739Z,2.40
2023-01-30T23:26:47.106Z,2.13
2023-01-30T23:29:15.724Z,3.20
2023-01-30T23:31:43.497Z,1.98
2023-01-30T23:34:16.287Z,2.33
2023-01-30T23:36:43.648Z,1.83
2023-01-30T23:39:12.035Z,2.40
2023-01-30T23:41:39.134Z,2.45
2023-01-30T23:44:06.131Z,2.58
2023-01-30T23:46:37.742Z,2.28
2023-01-30T23:49:12.553Z,2.38
2023-01-30T23:51:41.709Z,2.72
2023-01-30T23:54:08.622Z,1.50
2023-01-30T23:56:37.630Z,2.03
2023-01-30T23:59:04.991Z,2.05
